Time;durP1;ratioP1;P1;durP2;ratioP2;P2;SDS_P1;SDS_P2;PMS_P1;PMS_P2;Temp;Humidity;BMP_temperature;BMP_pressure;BME280_temperature;BME280_humidity;BME280_pressure;Samples;Min_cycle;Max_cycle;Signal;HPM_P1;HPM_P2
2023/02/11 00:02:07;;;;;;;29.90;12.80;;;;;;;;;;5030742;28;20383;-56
2023/02/11 00:04:33;;;;;;;29.17;11.68;;;;;;;;;;5031353;28;20380;-56
2023/02/11 00:06:59;;;;;;;28.17;12.27;;;;;;;;;;5030979;28;20466;-56
2023/02/11 00:09:25;;;;;;;29.05;12.57;;;;;;;;;;5030546;28;20411;-56
2023/02/11 00:11:50;;;;;;;31.27;13.77;;;;;;;;;;5030869;28;20795;-56
2023/02/11 00:14:16;;;;;;;28.38;12.40;;;;;;;;;;5030419;28;20394;-56
2023/02/11 00:16:42;;;;;;;27.00;12.13;;;;;;;;;;5030771;28;20425;-56
2023/02/11 00:19:09;;;;;;;29.45;12.55;;;;;;;;;;5030616;28;20940;-56
2023/02/11 00:21:36;;;;;;;34.15;13.50;;;;;;;;;;5030953;28;20434;-56
2023/02/11 00:24:02;;;;;;;28.17;12.37;;;;;;;;;;5030335;28;20545;-56
2023/02/11 00:26:32;;;;;;;27.40;12.77;;;;;;;;;;5030108;28;20395;-56
2023/02/11 00:28:59;;;;;;;30.58;13.02;;;;;;;;;;5030601;28;20465;-56
2023/02/11 00:31:25;;;;;;;27.80;12.80;;;;;;;;;;5030642;28;20399;-56
2023/02/11 00:33:51;;;;;;;30.05;13.18;;;;;;;;;;5030700;28;20379;-56
2023/02/11 00:36:18;;;;;;;30.90;13.70;;;;;;;;;;5029720;28;20407;-56
2023/02/11 00:38:45;;;;;;;27.95;13.95;;;;;;;;;;5030684;28;20752;-56
2023/02/11 00:41:13;;;;;;;30.52;13.20;;;;;;;;;;5029919;28;20437;-56
2023/02/11 00:43:39;;;;;;;30.70;12.65;;;;;;;;;;5030346;28;20525;-56
2023/02/11 00:46:06;;;;;;;30.88;13.07;;;;;;;;;;5029264;28;20776;-57
2023/02/11 00:48:32;;;;;;;29.02;12.40;;;;;;;;;;5030222;28;20928;-56
2023/02/11 00:50:58;;;;;;;26.50;12.13;;;;;;;;;;5012883;28;20395;-56
2023/02/11 00:53:24;;;;;;;30.75;12.65;;;;;;;;;;5029333;28;20903;-56
2023/02/11 00:55:50;;;;;;;31.00;12.23;;;;;;;;;;5030965;28;20415;-57
2023/02/11 00:58:16;;;;;;;26.73;13.02;;;;;;;;;;5029319;28;20928;-56
2023/02/11 01:00:42;;;;;;;31.27;13.45;;;;;;;;;;5029645;28;20390;-56
2023/02/11 01:03:08;;;;;;;28.58;13.80;;;;;;;;;;5029517;28;20428;-57
2023/02/11 01:05:34;;;;;;;34.30;14.30;;;;;;;;;;5029915;28;20461;-56
2023/02/11 01:08:00;;;;;;;28.48;13.30;;;;;;;;;;5029866;28;20397;-56
2023/02/11 01:10:27;;;;;;;37.27;15.70;;;;;;;;;;5029928;28;20491;-57
2023/02/11 01:12:53;;;;;;;26.08;12.98;;;;;;;;;;5029817;28;20476;-57
2023/02/11 01:15:20;;;;;;;32.58;13.43;;;;;;;;;;5029235;28;20387;-57
2023/02/11 01:17:46;;;;;;;31.35;13.65;;;;;;;;;;5023532;28;20485;-56
2023/02/11 01:20:15;;;;;;;34.67;13.20;;;;;;;;;;5029341;28;20379;-57
2023/02/11 01:22:42;;;;;;;28.73;13.98;;;;;;;;;;5029998;28;20393;-56
2023/02/11 01:25:08;;;;;;;31.77;13.45;;;;;;;;;;5029336;28;20383;-57
2023/02/11 01:27:34;;;;;;;30.77;14.80;;;;;;;;;;5030132;28;20462;-56
2023/02/11 01:30:00;;;;;;;31.08;13.52;;;;;;;;;;5029951;28;20407;-56
2023/02/11 01:32:26;;;;;;;33.93;14.10;;;;;;;;;;5024030;28;20757;-57
2023/02/11 01:34:52;;;;;;;29.03;13.67;;;;;;;;;;5010557;28;20475;-56
2023/02/11 01:37:18;;;;;;;28.95;12.98;;;;;;;;;;5009298;28;20916;-56
2023/02/11 01:39:44;;;;;;;31.63;13.80;;;;;;;;;;5010361;28;20380;-56
2023/02/11 01:42:17;;;;;;;31.90;14.23;;;;;;;;;;5009339;28;20869;-57
2023/02/11 01:44:43;;;;;;;31.17;13.55;;;;;;;;;;5010082;28;20385;-56
2023/02/11 01:47:10;;;;;;;29.25;13.80;;;;;;;;;;5010728;28;20919;-57
2023/02/11 01:49:38;;;;;;;29.15;13.00;;;;;;;;;;5029559;28;20481;-57
2023/02/11 01:52:10;;;;;;;28.95;12.65;;;;;;;;;;5028637;28;20902;-57
2023/02/11 01:57:26;;;;;;;32.42;14.77;;;;;;;;;;5028072;28;21257;-57
2023/02/11 01:59:52;;;;;;;29.13;14.40;;;;;;;;;;5029563;28;20387;-57
2023/02/11 02:02:21;;;;;;;35.20;16.20;;;;;;;;;;5027598;28;20402;-57
2023/02/11 02:04:57;;;;;;;33.60;14.25;;;;;;;;;;5029096;28;20415;-56
2023/02/11 02:07:52;;;;;;;31.85;13.48;;;;;;;;;;5028256;28;20383;-56
2023/02/11 02:10:19;;;;;;;34.30;14.20;;;;;;;;;;4941182;28;20436;-56
2023/02/11 02:12:45;;;;;;;31.00;14.57;;;;;;;;;;5028749;28;20398;-57
2023/02/11 02:15:22;;;;;;;32.90;14.00;;;;;;;;;;5028492;28;20395;-56
2023/02/11 02:18:02;;;;;;;37.03;14.20;;;;;;;;;;5028403;28;20418;-56
2023/02/11 02:20:40;;;;;;;31.20;13.40;;;;;;;;;;5028768;28;20482;-56
2023/02/11 02:23:19;;;;;;;32.75;14.02;;;;;;;;;;5026836;28;20418;-56
2023/02/11 02:26:02;;;;;;;32.80;14.77;;;;;;;;;;5029058;28;20935;-56
2023/02/11 02:28:38;;;;;;;30.97;14.10;;;;;;;;;;5028151;28;20478;-56
2023/02/11 02:31:11;;;;;;;29.90;13.68;;;;;;;;;;5028580;28;20399;-56
2023/02/11 02:33:40;;;;;;;35.55;15.23;;;;;;;;;;5026075;28;20391;-56
2023/02/11 02:36:14;;;;;;;37.22;14.60;;;;;;;;;;5028272;28;20866;-56
2023/02/11 02:38:43;;;;;;;34.80;14.40;;;;;;;;;;5029036;28;20419;-56
2023/02/11 02:41:11;;;;;;;28.92;13.40;;;;;;;;;;5028209;28;20403;-56
2023/02/11 02:43:42;;;;;;;33.10;14.65;;;;;;;;;;5028595;28;20395;-56
2023/02/11 02:46:37;;;;;;;29.30;13.82;;;;;;;;;;5014265;28;20383;-57
2023/02/11 02:49:05;;;;;;;29.60;12.52;;;;;;;;;;5007831;28;20788;-56
2023/02/11 02:51:34;;;;;;;29.10;13.82;;;;;;;;;;5032956;28;20394;-56
2023/02/11 02:54:26;;;;;;;31.52;13.73;;;;;;;;;;5032773;28;20398;-57
2023/02/11 02:56:52;;;;;;;33.50;13.40;;;;;;;;;;5032888;28;20395;-56
2023/02/11 02:59:18;;;;;;;36.90;13.50;;;;;;;;;;5031670;28;20398;-56
2023/02/11 03:01:44;;;;;;;33.58;12.48;;;;;;;;;;5032120;28;20423;-56
2023/02/11 03:04:10;;;;;;;28.98;13.07;;;;;;;;;;5031450;28;20456;-56
2023/02/11 03:06:49;;;;;;;28.77;13.40;;;;;;;;;;5032258;28;20442;-56
2023/02/11 03:09:21;;;;;;;28.03;12.13;;;;;;;;;;5031620;28;20457;-56
2023/02/11 03:11:47;;;;;;;27.42;12.38;;;;;;;;;;5032263;28;20888;-57
2023/02/11 03:14:15;;;;;;;26.77;11.65;;;;;;;;;;5031562;28;20405;-57
2023/02/11 03:16:43;;;;;;;25.10;11.30;;;;;;;;;;5032054;28;20482;-56
2023/02/11 03:19:12;;;;;;;24.10;11.35;;;;;;;;;;5032092;28;20390;-56
2023/02/11 03:21:41;;;;;;;23.05;10.27;;;;;;;;;;5020123;28;20484;-56
2023/02/11 03:24:09;;;;;;;27.98;12.32;;;;;;;;;;5011845;28;20472;-56
2023/02/11 03:26:38;;;;;;;30.33;12.03;;;;;;;;;;4995285;28;20871;-56
2023/02/11 03:29:15;;;;;;;22.52;11.10;;;;;;;;;;5012170;28;20446;-56
2023/02/11 03:31:43;;;;;;;27.13;12.55;;;;;;;;;;5012609;28;20384;-56
2023/02/11 03:34:13;;;;;;;38.05;12.85;;;;;;;;;;5027032;28;20407;-56
2023/02/11 03:36:44;;;;;;;32.60;13.95;;;;;;;;;;5032437;28;20461;-56
2023/02/11 03:39:12;;;;;;;28.60;13.13;;;;;;;;;;5031226;28;20371;-56
2023/02/11 03:41:40;;;;;;;28.33;12.93;;;;;;;;;;5032028;28;20443;-57
2023/02/11 03:44:07;;;;;;;33.80;13.48;;;;;;;;;;5031373;28;20395;-56
2023/02/11 03:46:36;;;;;;;32.43;12.70;;;;;;;;;;5031122;28;20506;-56
2023/02/11 03:49:04;;;;;;;30.40;12.40;;;;;;;;;;5031536;28;20454;-56
2023/02/11 03:51:31;;;;;;;29.45;12.45;;;;;;;;;;5031659;28;20394;-56
2023/02/11 03:53:59;;;;;;;26.30;11.13;;;;;;;;;;5031647;28;20384;-56
2023/02/11 03:56:29;;;;;;;28.73;13.35;;;;;;;;;;5030598;28;20399;-56
2023/02/11 03:58:55;;;;;;;27.10;12.27;;;;;;;;;;5031411;28;20383;-57
2023/02/11 04:01:21;;;;;;;29.77;13.00;;;;;;;;;;5030433;28;20383;-57
2023/02/11 04:03:47;;;;;;;26.10;12.45;;;;;;;;;;5031779;28;20376;-56
2023/02/11 04:06:13;;;;;;;30.23;11.88;;;;;;;;;;5030377;28;20882;-57
2023/02/11 04:08:39;;;;;;;26.73;12.23;;;;;;;;;;5030675;28;20410;-56
2023/02/11 04:11:05;;;;;;;24.90;11.85;;;;;;;;;;5029888;28;20856;-56
2023/02/11 04:13:31;;;;;;;28.23;11.93;;;;;;;;;;5031012;28;20429;-57
2023/02/11 04:15:57;;;;;;;27.75;12.73;;;;;;;;;;5013323;28;20494;-57
2023/02/11 04:18:23;;;;;;;28.58;13.00;;;;;;;;;;5030280;28;20423;-56
2023/02/11 04:20:50;;;;;;;28.33;13.40;;;;;;;;;;5031061;28;20864;-57
2023/02/11 04:23:16;;;;;;;28.38;12.68;;;;;;;;;;5030537;28;20390;-57
2023/02/11 04:25:42;;;;;;;29.55;13.30;;;;;;;;;;5030684;28;20478;-57
2023/02/11 04:28:08;;;;;;;29.20;13.13;;;;;;;;;;5030197;28;20383;-57
2023/02/11 04:30:34;;;;;;;30.23;14.13;;;;;;;;;;5030684;28;20843;-56
2023/02/11 04:33:00;;;;;;;32.35;15.05;;;;;;;;;;5030198;28;20474;-57
2023/02/11 04:35:26;;;;;;;32.40;13.13;;;;;;;;;;5030293;28;21182;-57
2023/02/11 04:37:52;;;;;;;28.37;13.30;;;;;;;;;;5030458;28;20936;-57
2023/02/11 04:40:18;;;;;;;27.57;12.77;;;;;;;;;;5029965;28;20391;-57
2023/02/11 04:42:44;;;;;;;25.57;12.63;;;;;;;;;;5030159;28;20490;-56
2023/02/11 04:45:10;;;;;;;31.37;13.00;;;;;;;;;;5029905;28;20391;-56
2023/02/11 04:47:36;;;;;;;31.30;12.90;;;;;;;;;;5030387;28;20403;-57
2023/02/11 04:50:02;;;;;;;30.30;13.77;;;;;;;;;;5030504;28;20422;-57
2023/02/11 04:52:29;;;;;;;34.55;15.00;;;;;;;;;;5029942;28;20934;-57
2023/02/11 04:54:55;;;;;;;29.85;13.35;;;;;;;;;;5030456;28;20930;-57
2023/02/11 04:57:21;;;;;;;35.33;14.73;;;;;;;;;;5029508;28;20383;-57
2023/02/11 04:59:48;;;;;;;31.58;14.30;;;;;;;;;;5030009;28;20387;-57
2023/02/11 05:02:14;;;;;;;28.90;13.75;;;;;;;;;;5029549;28;20491;-57
2023/02/11 05:04:41;;;;;;;30.98;14.48;;;;;;;;;;5012709;28;20489;-57
2023/02/11 05:07:07;;;;;;;30.07;13.67;;;;;;;;;;5011355;28;20387;-57
2023/02/11 05:09:33;;;;;;;30.80;13.37;;;;;;;;;;5030100;28;20776;-57
2023/02/11 05:11:59;;;;;;;33.90;14.50;;;;;;;;;;5029557;28;20391;-56
2023/02/11 05:14:27;;;;;;;31.10;14.07;;;;;;;;;;5028873;28;20470;-57
2023/02/11 05:16:54;;;;;;;31.10;12.85;;;;;;;;;;5024413;28;20918;-57
2023/02/11 05:19:20;;;;;;;28.38;14.05;;;;;;;;;;5009704;28;20377;-57
2023/02/11 05:21:46;;;;;;;29.63;14.07;;;;;;;;;;5020693;28;20375;-57
2023/02/11 05:24:12;;;;;;;35.38;14.38;;;;;;;;;;5029154;28;20375;-57
2023/02/11 05:26:38;;;;;;;32.53;14.35;;;;;;;;;;5029804;28;20392;-57
2023/02/11 05:29:04;;;;;;;32.13;14.30;;;;;;;;;;5029786;28;20406;-57
2023/02/11 05:31:30;;;;;;;31.65;15.00;;;;;;;;;;5029430;28;20526;-57
2023/02/11 05:33:56;;;;;;;32.45;14.65;;;;;;;;;;5019224;28;20365;-57
2023/02/11 05:36:22;;;;;;;30.08;13.60;;;;;;;;;;5009410;28;20365;-57
2023/02/11 05:38:49;;;;;;;31.02;14.05;;;;;;;;;;5009864;28;20869;-57
2023/02/11 05:41:15;;;;;;;34.75;15.20;;;;;;;;;;5009206;28;20384;-57
2023/02/11 05:43:41;;;;;;;32.55;13.90;;;;;;;;;;5010138;28;20901;-57
2023/02/11 05:46:07;;;;;;;29.70;13.88;;;;;;;;;;5009364;28;20471;-58
2023/02/11 05:48:33;;;;;;;29.85;13.65;;;;;;;;;;5028099;28;20620;-57
2023/02/11 05:50:59;;;;;;;31.67;14.85;;;;;;;;;;5029795;28;20396;-57
2023/02/11 05:53:25;;;;;;;34.78;15.35;;;;;;;;;;5028638;28;20388;-57
2023/02/11 05:55:51;;;;;;;31.30;14.20;;;;;;;;;;5027444;28;20399;-57
2023/02/11 05:58:17;;;;;;;32.00;14.63;;;;;;;;;;5028917;28;20433;-57
2023/02/11 06:00:43;;;;;;;32.53;15.27;;;;;;;;;;5029172;28;20395;-57
2023/02/11 06:03:09;;;;;;;33.58;14.30;;;;;;;;;;5028610;28;20437;-57
2023/02/11 06:05:35;;;;;;;32.67;14.35;;;;;;;;;;5029103;28;20383;-57
2023/02/11 06:08:01;;;;;;;32.65;13.93;;;;;;;;;;5028934;28;20812;-57
2023/02/11 06:10:27;;;;;;;33.30;13.70;;;;;;;;;;5028557;28;20453;-57
2023/02/11 06:12:54;;;;;;;29.40;14.15;;;;;;;;;;5028819;28;20388;-57
2023/02/11 06:15:20;;;;;;;26.45;13.98;;;;;;;;;;5025717;28;21378;-57
2023/02/11 06:17:46;;;;;;;33.40;14.85;;;;;;;;;;5026645;28;20473;-57
2023/02/11 06:20:12;;;;;;;33.08;14.20;;;;;;;;;;5025938;28;20426;-58
2023/02/11 06:22:38;;;;;;;33.73;15.23;;;;;;;;;;5027374;28;20491;-57
2023/02/11 06:25:05;;;;;;;36.73;16.63;;;;;;;;;;5027876;28;21027;-57
2023/02/11 06:27:31;;;;;;;33.38;15.20;;;;;;;;;;5031905;28;20460;-57
2023/02/11 06:29:57;;;;;;;27.90;14.25;;;;;;;;;;5031851;28;20453;-57
2023/02/11 06:32:23;;;;;;;33.20;15.82;;;;;;;;;;5030610;28;20399;-57
2023/02/11 06:34:49;;;;;;;31.95;15.30;;;;;;;;;;5021499;28;20388;-57
2023/02/11 06:37:15;;;;;;;29.52;14.02;;;;;;;;;;5030791;28;20385;-57
2023/02/11 06:39:41;;;;;;;33.33;15.32;;;;;;;;;;5031130;28;20417;-57
2023/02/11 06:42:07;;;;;;;34.65;16.08;;;;;;;;;;5028651;28;20425;-57
2023/02/11 06:44:33;;;;;;;38.90;16.67;;;;;;;;;;5028693;28;20370;-57
2023/02/11 06:46:59;;;;;;;43.47;18.90;;;;;;;;;;5008780;28;20459;-56
2023/02/11 06:49:25;;;;;;;32.70;15.55;;;;;;;;;;5031193;28;20423;-56
2023/02/11 06:51:53;;;;;;;32.78;15.10;;;;;;;;;;5030662;28;20482;-56
2023/02/11 06:54:19;;;;;;;33.90;14.90;;;;;;;;;;5031453;28;20391;-56
2023/02/11 06:56:45;;;;;;;32.05;17.48;;;;;;;;;;5028967;28;20698;-57
2023/02/11 06:59:15;;;;;;;33.88;15.98;;;;;;;;;;5031583;28;20478;-56
2023/02/11 07:01:41;;;;;;;31.43;13.77;;;;;;;;;;5021350;28;20383;-56
2023/02/11 07:04:08;;;;;;;28.43;14.00;;;;;;;;;;5023558;28;20406;-56
2023/02/11 07:06:36;;;;;;;30.77;14.20;;;;;;;;;;5026745;28;20395;-57
2023/02/11 07:09:04;;;;;;;30.55;13.88;;;;;;;;;;5030288;28;20414;-56
2023/02/11 07:11:30;;;;;;;27.88;13.82;;;;;;;;;;5029698;28;20421;-57
2023/02/11 07:13:59;;;;;;;32.43;14.70;;;;;;;;;;5018715;28;20957;-58
2023/02/11 07:16:25;;;;;;;32.70;14.90;;;;;;;;;;5028921;28;20428;-57
2023/02/11 07:18:51;;;;;;;34.27;15.70;;;;;;;;;;5026950;28;20690;-57
2023/02/11 07:21:19;;;;;;;34.10;14.50;;;;;;;;;;5016862;28;21591;-57
2023/02/11 07:23:45;;;;;;;34.85;13.95;;;;;;;;;;5019740;28;22201;-57
2023/02/11 07:26:12;;;;;;;28.90;15.52;;;;;;;;;;5023078;28;20379;-57
2023/02/11 07:28:39;;;;;;;29.15;14.65;;;;;;;;;;5028965;28;20419;-57
2023/02/11 07:31:09;;;;;;;34.30;15.83;;;;;;;;;;5029025;28;20900;-57
2023/02/11 07:33:36;;;;;;;33.15;14.48;;;;;;;;;;5024662;28;20449;-57
2023/02/11 07:36:09;;;;;;;32.07;15.33;;;;;;;;;;5024033;28;20407;-57
2023/02/11 07:38:35;;;;;;;32.72;14.57;;;;;;;;;;5028263;28;20406;-57
2023/02/11 07:41:02;;;;;;;32.25;14.20;;;;;;;;;;5010828;28;20773;-57
2023/02/11 07:43:28;;;;;;;29.98;14.63;;;;;;;;;;5024709;28;20442;-57
2023/02/11 07:45:54;;;;;;;30.65;13.73;;;;;;;;;;5029934;28;20747;-57
2023/02/11 07:48:20;;;;;;;32.28;15.40;;;;;;;;;;5027309;28;20827;-57
2023/02/11 07:50:46;;;;;;;31.70;13.75;;;;;;;;;;5030052;28;20394;-57
2023/02/11 07:53:12;;;;;;;30.92;14.93;;;;;;;;;;5027773;28;20405;-57
2023/02/11 07:55:38;;;;;;;34.67;15.48;;;;;;;;;;5028094;28;20391;-57
2023/02/11 07:58:04;;;;;;;26.50;13.48;;;;;;;;;;5029082;28;20899;-56
2023/02/11 08:00:30;;;;;;;25.15;12.73;;;;;;;;;;5012280;28;20410;-56
2023/02/11 08:02:57;;;;;;;31.77;15.25;;;;;;;;;;5028802;28;20406;-56
2023/02/11 08:05:23;;;;;;;29.70;13.05;;;;;;;;;;5021142;28;20402;-56
2023/02/11 08:07:52;;;;;;;26.05;12.95;;;;;;;;;;5026573;28;20866;-55
2023/02/11 08:10:19;;;;;;;26.20;12.52;;;;;;;;;;5028041;28;20419;-55
2023/02/11 08:12:45;;;;;;;27.88;11.98;;;;;;;;;;5028605;28;20399;-57
2023/02/11 08:15:11;;;;;;;23.58;12.10;;;;;;;;;;5025938;28;20508;-55
2023/02/11 08:17:37;;;;;;;25.33;11.48;;;;;;;;;;5026132;28;20423;-56
2023/02/11 08:20:04;;;;;;;24.40;12.25;;;;;;;;;;5025556;28;20392;-57
2023/02/11 08:22:33;;;;;;;20.00;10.57;;;;;;;;;;5018999;28;20385;-57
2023/02/11 08:24:59;;;;;;;25.83;11.20;;;;;;;;;;5025849;28;20388;-57
2023/02/11 08:27:25;;;;;;;20.45;10.05;;;;;;;;;;5020759;28;20884;-57
2023/02/11 08:29:52;;;;;;;23.85;9.90;;;;;;;;;;5023453;28;20421;-58
2023/02/11 08:32:18;;;;;;;21.00;10.30;;;;;;;;;;5027747;28;20402;-58
2023/02/11 08:34:44;;;;;;;21.45;10.10;;;5.20;1.00;;;;;;5028279;28;20391;-58
2023/02/11 08:37:09;;;;;;;24.63;10.37;;;5.40;1.00;;;;;;5028352;28;20730;-59
2023/02/11 08:39:35;;;;;;;21.58;10.38;;;6.60;1.00;;;;;;5022471;28;20400;-59
2023/02/11 08:42:00;;;;;;;26.40;11.70;;;7.70;99.90;;;;;;5028154;28;20403;-57
2023/02/11 08:44:26;;;;;;;20.92;10.70;;;9.90;99.90;;;;;;5028722;28;20470;-57
2023/02/11 08:46:52;;;;;;;23.50;11.18;;;10.00;99.90;;;;;;5026171;28;20496;-59
2023/02/11 08:49:18;;;;;;;24.70;10.95;;;11.00;99.90;;;;;;5024061;28;20407;-59
2023/02/11 08:51:45;;;;;;;19.75;10.52;;;11.70;99.90;;;;;;5028011;28;20561;-59
2023/02/11 08:54:11;;;;;;;20.73;10.60;;;11.20;99.90;;;;;;5018776;28;20409;-59
2023/02/11 08:56:37;;;;;;;21.92;10.98;;;11.40;99.90;;;;;;5024314;28;20915;-59
2023/02/11 08:59:04;;;;;;;20.05;10.73;;;12.30;99.90;;;;;;5027570;28;20495;-59
2023/02/11 09:01:30;;;;;;;18.38;10.57;;;12.10;99.90;;;;;;5027212;28;20764;-59
2023/02/11 09:03:57;;;;;;;20.38;11.13;;;12.20;99.90;;;;;;5025155;28;21090;-59
2023/02/11 09:06:24;;;;;;;21.98;11.50;;;12.20;99.90;;;;;;5027444;28;20434;-58
2023/02/11 09:08:52;;;;;;;21.35;11.63;;;12.00;99.90;;;;;;5026908;28;20924;-59
2023/02/11 09:11:19;;;;;;;20.40;11.65;;;12.00;99.90;;;;;;5027360;28;20441;-59
2023/02/11 09:13:46;;;;;;;21.30;10.73;;;12.00;99.90;;;;;;5027489;28;20714;-58
2023/02/11 09:16:18;;;;;;;20.20;12.33;;;11.80;99.90;;;;;;5027440;28;20845;-58
2023/02/11 09:18:44;;;;;;;19.70;10.87;;;12.40;99.90;;;;;;5026142;28;20422;-59
2023/02/11 09:21:11;;;;;;;19.33;11.57;;;13.10;99.90;;;;;;5027611;28;20466;-59
2023/02/11 09:23:37;;;;;;;24.27;12.30;;;13.90;99.90;;;;;;5006573;28;20415;-57
2023/02/11 09:26:07;;;;;;;17.57;12.17;;;14.00;99.90;;;;;;5027568;28;20448;-58
2023/02/11 09:28:33;;;;;;;19.13;13.05;;;14.50;99.90;;;;;;5026867;28;20434;-58
2023/02/11 09:31:07;;;;;;;25.65;18.95;;;14.50;99.90;;;;;;5025886;28;20423;-58
2023/02/11 09:33:33;;;;;;;28.20;19.60;;;15.20;99.90;;;;;;5027085;28;20494;-58
2023/02/11 09:36:04;;;;;;;28.83;21.02;;;15.60;99.90;;;;;;5028208;28;20493;-58
2023/02/11 09:38:30;;;;;;;31.35;21.40;;;16.10;99.90;;;;;;5025118;28;20403;-58
2023/02/11 09:40:56;;;;;;;29.20;21.53;;;16.50;99.90;;;;;;5021866;28;20406;-58
2023/02/11 09:43:29;;;;;;;29.77;19.95;;;16.50;99.90;;;;;;5026663;28;20415;-58
2023/02/11 09:45:55;;;;;;;26.33;18.02;;;16.20;99.90;;;;;;5027474;28;21068;-58
2023/02/11 09:48:21;;;;;;;23.27;18.17;;;16.20;99.90;;;;;;5024919;28;20772;-58
2023/02/11 09:50:56;;;;;;;19.55;14.40;;;15.90;99.90;;;;;;5021003;28;20882;-58
2023/02/11 09:53:37;;;;;;;17.48;13.52;;;14.00;99.90;;;;;;5027655;28;20774;-58
2023/02/11 09:56:10;;;;;;;18.52;12.20;;;12.70;99.90;;;;;;5026945;28;20455;-59
2023/02/11 09:58:39;;;;;;;16.55;11.15;;;11.70;99.90;;;;;;5027348;28;20398;-58
2023/02/11 10:01:24;;;;;;;19.35;10.95;;;11.10;99.90;;;;;;5018520;28;20445;-58
2023/02/11 10:03:57;;;;;;;16.17;10.70;;;11.00;99.90;;;;;;5015505;28;20399;-58
2023/02/11 10:06:46;;;;;;;17.60;10.67;;;11.00;99.90;;;;;;5017847;28;20420;-58
2023/02/11 10:09:21;;;;;;;15.40;11.20;;;13.60;99.90;;;;;;5024494;28;20458;-58
2023/02/11 10:12:24;;;;;;;15.88;12.10;;;13.90;99.90;;;;;;5018750;28;20459;-58
2023/02/11 10:15:01;;;;;;;16.97;12.93;;;15.00;99.90;;;;;;5025154;28;20440;-58
2023/02/11 10:17:39;;;;;;;15.45;13.30;;;15.40;99.90;;;;;;5017769;28;20458;-59
2023/02/11 10:20:19;;;;;;;17.83;13.60;;;15.50;99.90;;;;;;5019499;28;20495;-58
2023/02/11 10:23:00;;;;;;;16.90;13.95;;;15.00;99.90;;;;;;5020533;28;20537;-58
2023/02/11 10:25:39;;;;;;;17.38;12.20;;;14.80;99.90;;;;;;5015051;28;20442;-59
2023/02/11 10:28:23;;;;;;;15.68;11.60;;;13.50;99.90;;;;;;5022292;28;20498;-58
2023/02/11 10:30:49;;;;;;;15.40;11.77;;;13.50;99.90;;;;;;5019563;28;21338;-57
2023/02/11 10:33:24;;;;;;;16.23;10.53;;;12.70;99.90;;;;;;5021601;28;20403;-58
2023/02/11 10:35:49;;;;;;;13.32;9.70;;;13.60;99.90;;;;;;5018305;28;20488;-58
2023/02/11 10:38:15;;;;;;;15.20;9.00;;;13.40;99.90;;;;;;5025820;28;21180;-57
2023/02/11 10:40:41;;;;;;;14.17;9.63;;;13.40;99.90;;;;;;5019888;28;20485;-58
2023/02/11 10:43:12;;;;;;;14.10;9.20;;;13.20;99.90;;;;;;5024847;28;20407;-58
2023/02/11 10:45:44;;;;;;;15.02;8.55;;;12.00;99.90;;;;;;5024283;28;20717;-59
2023/02/11 10:48:49;;;;;;;15.65;8.40;;;13.50;99.90;;;;;;5026308;28;20496;-58
2023/02/11 10:51:22;;;;;;;16.05;9.80;;;13.80;99.90;;;;;;5025115;28;20900;-58
2023/02/11 10:53:57;;;;;;;15.40;9.20;;;14.20;99.90;;;;;;5025640;28;20406;-58
2023/02/11 10:56:26;;;;;;;13.60;9.02;;;14.50;99.90;;;;;;5022221;28;20930;-59
2023/02/11 10:58:59;;;;;;;13.90;9.73;;;14.70;99.90;;;;;;5025559;28;20410;-58
2023/02/11 11:01:48;;;;;;;14.75;9.02;;;14.00;99.90;;;;;;5025562;28;20406;-59
2023/02/11 11:04:32;;;;;;;15.43;9.38;;;14.30;99.90;;;;;;5018110;28;20416;-58
2023/02/11 11:07:12;;;;;;;17.10;9.98;;;15.50;99.90;;;;;;5016291;28;20490;-58
2023/02/11 11:09:47;;;;;;;14.82;10.02;;;15.30;99.90;;;;;;5020414;28;20415;-58
2023/02/11 11:12:30;;;;;;;16.33;11.20;;;14.90;99.90;;;;;;5026459;28;20399;-58
2023/02/11 11:15:22;;;;;;;15.57;10.80;;;15.10;99.90;;;;;;5021446;28;20912;-58
2023/02/11 11:18:09;;;;;;;15.47;9.80;;;15.30;99.90;;;;;;5011950;28;20774;-58
2023/02/11 11:20:35;;;;;;;14.52;9.43;;;14.50;99.90;;;;;;5018165;28;20419;-58
2023/02/11 11:23:20;;;;;;;14.88;9.35;;;14.40;99.90;;;;;;5030253;28;20447;-58
2023/02/11 11:26:08;;;;;;;17.33;9.30;;;14.70;99.90;;;;;;5028223;28;20392;-58
2023/02/11 11:28:45;;;;;;;15.73;9.60;;;15.00;99.90;;;;;;5021177;28;20395;-59
2023/02/11 11:31:32;;;;;;;17.50;10.27;;;15.20;99.90;;;;;;5030342;28;20489;-58
2023/02/11 11:34:01;;;;;;;16.15;9.82;;;14.50;99.90;;;;;;5024010;28;21315;-58
2023/02/11 11:36:38;;;;;;;19.85;9.85;;;14.30;99.90;;;;;;5025293;28;20568;-57
2023/02/11 11:39:24;;;;;;;18.77;9.82;;;13.50;99.90;;;;;;5024631;28;20722;-58
2023/02/11 11:41:56;;;;;;;17.57;9.63;;;13.60;99.90;;;;;;5022431;28;20472;-58
2023/02/11 11:44:31;;;;;;;14.73;8.95;;;13.40;99.90;;;;;;5027044;28;20830;-58
2023/02/11 11:47:14;;;;;;;15.25;8.93;;;13.20;99.90;;;;;;5028974;28;20410;-58
2023/02/11 11:49:49;;;;;;;13.52;7.60;;;13.00;99.90;;;;;;5023511;28;20487;-58
2023/02/11 11:52:40;;;;;;;13.05;7.50;;;12.60;99.90;;;;;;5025384;28;20437;-58
2023/02/11 11:55:20;;;;;;;14.27;7.60;;;12.60;99.90;;;;;;5022209;28;20403;-57
2023/02/11 11:57:47;;;;;;;15.63;8.25;;;12.50;99.90;;;;;;5018396;28;20922;-58
2023/02/11 12:00:27;;;;;;;15.20;7.85;;;12.10;99.90;;;;;;5021598;28;20414;-58
2023/02/11 12:03:04;;;;;;;14.60;6.78;;;11.90;99.90;;;;;;5027668;28;20406;-58
2023/02/11 12:06:02;;;;;;;16.15;8.35;;;12.00;99.90;;;;;;5021737;28;20414;-58
2023/02/11 12:08:58;;;;;;;29.80;11.73;;;12.20;99.90;;;;;;4997356;28;20407;-58
2023/02/11 12:12:13;;;;;;;21.57;10.70;;;12.60;99.90;;;;;;5025607;28;20407;-58
2023/02/11 12:15:13;;;;;;;22.42;11.00;;;12.60;99.90;;;;;;5018282;28;20465;-58
2023/02/11 12:17:45;;;;;;;21.30;10.60;;;12.70;99.90;;;;;;5020912;28;20463;-58
2023/02/11 12:20:17;;;;;;;21.85;10.88;;;12.50;99.90;;;;;;5019984;28;20426;-57
2023/02/11 12:23:02;;;;;;;20.03;9.73;;;13.00;99.90;;;;;;5026623;28;20415;-58
2023/02/11 12:25:40;;;;;;;21.48;9.90;;;13.40;99.90;;;;;;5018773;28;20424;-58
2023/02/11 12:28:36;;;;;;;19.15;9.80;;;13.00;99.90;;;;;;5017626;28;20967;-58
2023/02/11 12:31:09;;;;;;;22.88;11.60;;;12.60;99.90;;;;;;5021784;28;20795;-58
2023/02/11 12:34:17;;;;;;;18.92;9.15;;;12.60;99.90;;;;;;5028641;28;20498;-58
2023/02/11 12:37:01;;;;;;;21.98;12.02;;;12.70;99.90;;;;;;5028237;28;20422;-59
2023/02/11 12:39:53;;;;;;;21.40;11.35;;;12.80;99.90;;;;;;5027424;28;21109;-58
2023/02/11 12:45:21;;;;;;;21.65;11.40;;;12.80;99.90;;;;;;5025394;28;20497;-58
2023/02/11 12:47:55;;;;;;;20.02;10.55;;;13.00;99.90;;;;;;5027608;28;20488;-58
2023/02/11 12:50:48;;;;;;;24.35;11.45;;;12.60;99.90;;;;;;5019080;28;20509;-58
2023/02/11 12:53:31;;;;;;;21.17;12.57;;;12.50;99.90;;;;;;5020791;28;20415;-58
2023/02/11 12:56:10;;;;;;;21.63;12.00;;;12.20;99.90;;;;;;5021421;28;20776;-58
2023/02/11 12:58:37;;;;;;;22.85;11.98;;;11.90;99.90;;;;;;5028796;28;20394;-58
2023/02/11 13:01:08;;;;;;;20.55;11.70;;;12.20;99.90;;;;;;5023005;28;20410;-57
2023/02/11 13:03:46;;;;;;;19.25;9.57;;;12.00;99.90;;;;;;5029393;28;20399;-57
2023/02/11 13:06:20;;;;;;;15.27;8.25;;;11.50;99.90;;;;;;5027894;28;20560;-58
2023/02/11 13:08:54;;;;;;;25.95;11.13;;;11.50;99.90;;;;;;5027378;28;20512;-58
2023/02/11 13:11:41;;;;;;;20.83;10.30;;;11.40;99.90;;;;;;5025027;28;20768;-58
2023/02/11 13:14:20;;;;;;;20.20;10.67;;;11.70;99.90;;;;;;5019184;28;20424;-57
2023/02/11 13:16:48;;;;;;;20.77;11.30;;;11.90;99.90;;;;;;5024916;28;20498;-58
2023/02/11 13:19:37;;;;;;;20.02;10.55;;;12.10;99.90;;;;;;5026643;28;20478;-58
2023/02/11 13:22:15;;;;;;;20.67;10.10;;;12.10;99.90;;;;;;5021039;28;20387;-58
2023/02/11 13:24:46;;;;;;;19.77;10.17;;;11.90;99.90;;;;;;5029332;28;20394;-58
2023/02/11 13:27:37;;;;;;;21.20;10.77;;;11.60;99.90;;;;;;5027371;28;20864;-58
2023/02/11 13:30:28;;;;;;;20.83;11.20;;;11.60;99.90;;;;;;5022500;28;20508;-57
2023/02/11 13:32:57;;;;;;;22.67;10.63;;;11.70;99.90;;;;;;5010572;28;20421;-57
2023/02/11 13:35:34;;;;;;;24.73;11.55;;;11.30;99.90;;;;;;5018260;28;20403;-57
2023/02/11 13:38:03;;;;;;;25.50;10.77;;;11.20;99.90;;;;;;5019743;28;20399;-58
2023/02/11 13:40:35;;;;;;;21.70;10.45;;;11.20;99.90;;;;;;5024071;28;20469;-58
2023/02/11 13:43:03;;;;;;;23.02;9.80;;;11.20;99.90;;;;;;5022139;28;21310;-58
2023/02/11 13:45:43;;;;;;;23.20;10.70;;;11.10;99.90;;;;;;5025706;28;21040;-57
2023/02/11 13:48:25;;;;;;;20.60;10.10;;;10.90;99.90;;;;;;5022217;28;20416;-58
2023/02/11 13:50:54;;;;;;;20.23;10.02;;;11.10;99.90;;;;;;5023150;28;20424;-58
2023/02/11 13:53:21;;;;;;;18.50;9.55;;;11.40;99.90;;;;;;5024700;28;20947;-58
2023/02/11 13:55:51;;;;;;;20.00;8.23;;;11.20;99.90;;;;;;5020452;28;20529;-58
2023/02/11 13:58:26;;;;;;;19.23;9.18;;;11.00;99.90;;;;;;5018697;28;20401;-56
2023/02/11 14:00:51;;;;;;;19.70;10.00;;;11.00;99.90;;;;;;5022856;28;20811;-57